sensor_id;sensor_type;location;lat;lon;timestamp;P1;durP1;ratioP1;P2;durP2;ratioP2
9156;SDS011;4613;48.392;9.998;2022-11-04T00:01:40;3.90;;;2.90;;
9156;SDS011;4613;48.392;9.998;2022-11-04T00:04:30;3.10;;;2.80;;
9156;SDS011;4613;48.392;9.998;2022-11-04T00:07:20;3.20;;;2.60;;
9156;SDS011;4613;48.392;9.998;2022-11-04T00:10:27;3.40;;;2.67;;
9156;SDS011;4613;48.392;9.998;2022-11-04T00:13:35;3.53;;;2.40;;
9156;SDS011;4613;48.392;9.998;2022-11-04T00:16:25;2.83;;;2.50;;
9156;SDS011;4613;48.392;9.998;2022-11-04T00:19:33;2.60;;;2.37;;
9156;SDS011;4613;48.392;9.998;2022-11-04T00:22:41;2.60;;;2.30;;
9156;SDS011;4613;48.392;9.998;2022-11-04T00:25:49;2.67;;;2.43;;
9156;SDS011;4613;48.392;9.998;2022-11-04T00:28:57;2.37;;;2.10;;
9156;SDS011;4613;48.392;9.998;2022-11-04T00:31:46;2.77;;;2.53;;
9156;SDS011;4613;48.392;9.998;2022-11-04T00:34:55;2.80;;;2.20;;
9156;SDS011;4613;48.392;9.998;2022-11-04T00:37:47;4.50;;;2.50;;
9156;SDS011;4613;48.392;9.998;2022-11-04T00:40:36;3.47;;;2.47;;
9156;SDS011;4613;48.392;9.998;2022-11-04T00:43:25;3.83;;;2.60;;
9156;SDS011;4613;48.392;9.998;2022-11-04T00:46:21;2.43;;;2.23;;
9156;SDS011;4613;48.392;9.998;2022-11-04T00:49:10;2.47;;;2.20;;
9156;SDS011;4613;48.392;9.998;2022-11-04T00:52:00;2.30;;;2.07;;
9156;SDS011;4613;48.392;9.998;2022-11-04T00:54:49;2.90;;;1.97;;
9156;SDS011;4613;48.392;9.998;2022-11-04T00:57:39;2.43;;;2.23;;
9156;SDS011;4613;48.392;9.998;2022-11-04T01:00:28;2.30;;;2.10;;
9156;SDS011;4613;48.392;9.998;2022-11-04T01:03:17;2.17;;;1.97;;
9156;SDS011;4613;48.392;9.998;2022-11-04T01:06:07;1.97;;;1.77;;
9156;SDS011;4613;48.392;9.998;2022-11-04T01:08:58;2.87;;;2.10;;
9156;SDS011;4613;48.392;9.998;2022-11-04T01:11:49;3.20;;;1.87;;
9156;SDS011;4613;48.392;9.998;2022-11-04T01:14:38;1.73;;;1.63;;
9156;SDS011;4613;48.392;9.998;2022-11-04T01:17:28;2.03;;;1.60;;
9156;SDS011;4613;48.392;9.998;2022-11-04T01:20:17;1.23;;;1.13;;
9156;SDS011;4613;48.392;9.998;2022-11-04T01:23:06;1.20;;;1.20;;
9156;SDS011;4613;48.392;9.998;2022-11-04T01:25:55;1.17;;;1.13;;
9156;SDS011;4613;48.392;9.998;2022-11-04T01:28:44;1.80;;;1.50;;
9156;SDS011;4613;48.392;9.998;2022-11-04T01:31:34;1.30;;;1.20;;
9156;SDS011;4613;48.392;9.998;2022-11-04T01:34:24;1.00;;;1.00;;
9156;SDS011;4613;48.392;9.998;2022-11-04T01:37:14;0.83;;;0.83;;
9156;SDS011;4613;48.392;9.998;2022-11-04T01:40:03;1.27;;;1.23;;
9156;SDS011;4613;48.392;9.998;2022-11-04T01:42:53;1.07;;;1.07;;
9156;SDS011;4613;48.392;9.998;2022-11-04T01:45:43;1.00;;;1.00;;
9156;SDS011;4613;48.392;9.998;2022-11-04T01:48:35;0.80;;;0.80;;
9156;SDS011;4613;48.392;9.998;2022-11-04T01:51:25;0.80;;;0.80;;
9156;SDS011;4613;48.392;9.998;2022-11-04T01:54:16;0.87;;;0.87;;
9156;SDS011;4613;48.392;9.998;2022-11-04T01:57:06;0.93;;;0.83;;
9156;SDS011;4613;48.392;9.998;2022-11-04T02:00:00;0.83;;;0.80;;
9156;SDS011;4613;48.392;9.998;2022-11-04T02:03:05;1.10;;;1.00;;
9156;SDS011;4613;48.392;9.998;2022-11-04T02:06:02;1.10;;;1.10;;
9156;SDS011;4613;48.392;9.998;2022-11-04T02:08:53;1.47;;;1.30;;
9156;SDS011;4613;48.392;9.998;2022-11-04T02:11:43;1.00;;;1.00;;
9156;SDS011;4613;48.392;9.998;2022-11-04T02:14:51;0.90;;;0.90;;
9156;SDS011;4613;48.392;9.998;2022-11-04T02:17:51;1.00;;;1.00;;
9156;SDS011;4613;48.392;9.998;2022-11-04T02:20:57;1.17;;;1.10;;
9156;SDS011;4613;48.392;9.998;2022-11-04T02:27:23;1.33;;;1.03;;
9156;SDS011;4613;48.392;9.998;2022-11-04T02:30:26;1.47;;;1.37;;
9156;SDS011;4613;48.392;9.998;2022-11-04T02:33:21;1.47;;;1.37;;
9156;SDS011;4613;48.392;9.998;2022-11-04T02:36:27;0.90;;;0.90;;
9156;SDS011;4613;48.392;9.998;2022-11-04T02:39:33;1.40;;;1.30;;
9156;SDS011;4613;48.392;9.998;2022-11-04T02:45:47;1.07;;;1.07;;
9156;SDS011;4613;48.392;9.998;2022-11-04T02:48:40;1.27;;;1.17;;
9156;SDS011;4613;48.392;9.998;2022-11-04T02:51:39;1.57;;;1.23;;
9156;SDS011;4613;48.392;9.998;2022-11-04T02:54:49;1.30;;;1.20;;
9156;SDS011;4613;48.392;9.998;2022-11-04T02:57:44;4.17;;;1.30;;
9156;SDS011;4613;48.392;9.998;2022-11-04T03:00:37;0.80;;;0.80;;
9156;SDS011;4613;48.392;9.998;2022-11-04T03:03:39;1.10;;;1.10;;
9156;SDS011;4613;48.392;9.998;2022-11-04T03:06:34;1.20;;;1.10;;
9156;SDS011;4613;48.392;9.998;2022-11-04T03:09:26;1.30;;;1.20;;
9156;SDS011;4613;48.392;9.998;2022-11-04T03:12:19;1.13;;;1.03;;
9156;SDS011;4613;48.392;9.998;2022-11-04T03:15:16;1.00;;;1.00;;
9156;SDS011;4613;48.392;9.998;2022-11-04T03:21:20;1.30;;;1.03;;
9156;SDS011;4613;48.392;9.998;2022-11-04T03:24:12;1.30;;;1.20;;
9156;SDS011;4613;48.392;9.998;2022-11-04T03:27:11;1.17;;;1.07;;
9156;SDS011;4613;48.392;9.998;2022-11-04T03:30:16;1.03;;;1.00;;
9156;SDS011;4613;48.392;9.998;2022-11-04T03:36:08;1.97;;;1.00;;
9156;SDS011;4613;48.392;9.998;2022-11-04T03:38:57;0.90;;;0.90;;
9156;SDS011;4613;48.392;9.998;2022-11-04T03:41:48;0.80;;;0.80;;
9156;SDS011;4613;48.392;9.998;2022-11-04T03:44:40;1.00;;;1.00;;
9156;SDS011;4613;48.392;9.998;2022-11-04T03:47:31;0.90;;;0.90;;
9156;SDS011;4613;48.392;9.998;2022-11-04T03:50:23;0.90;;;0.90;;
9156;SDS011;4613;48.392;9.998;2022-11-04T03:53:16;1.23;;;1.00;;
9156;SDS011;4613;48.392;9.998;2022-11-04T04:05:28;0.87;;;0.67;;
9156;SDS011;4613;48.392;9.998;2022-11-04T04:11:44;0.50;;;0.50;;
9156;SDS011;4613;48.392;9.998;2022-11-04T04:14:42;1.03;;;0.93;;
9156;SDS011;4613;48.392;9.998;2022-11-04T04:17:44;1.00;;;0.63;;
9156;SDS011;4613;48.392;9.998;2022-11-04T04:20:39;0.40;;;0.40;;
9156;SDS011;4613;48.392;9.998;2022-11-04T04:23:31;0.53;;;0.50;;
9156;SDS011;4613;48.392;9.998;2022-11-04T04:26:42;0.50;;;0.50;;
9156;SDS011;4613;48.392;9.998;2022-11-04T04:29:53;0.97;;;0.60;;
9156;SDS011;4613;48.392;9.998;2022-11-04T04:32:44;1.27;;;1.03;;
9156;SDS011;4613;48.392;9.998;2022-11-04T04:35:39;1.43;;;0.90;;
9156;SDS011;4613;48.392;9.998;2022-11-04T04:38:38;2.33;;;1.17;;
9156;SDS011;4613;48.392;9.998;2022-11-04T04:41:49;6.60;;;4.20;;
9156;SDS011;4613;48.392;9.998;2022-11-04T04:44:58;2.17;;;1.37;;
9156;SDS011;4613;48.392;9.998;2022-11-04T04:47:52;0.60;;;0.60;;
9156;SDS011;4613;48.392;9.998;2022-11-04T04:50:43;0.80;;;0.67;;
9156;SDS011;4613;48.392;9.998;2022-11-04T04:53:38;0.70;;;0.70;;
9156;SDS011;4613;48.392;9.998;2022-11-04T04:56:27;1.53;;;0.90;;
9156;SDS011;4613;48.392;9.998;2022-11-04T04:59:16;0.80;;;0.70;;
9156;SDS011;4613;48.392;9.998;2022-11-04T05:02:06;0.63;;;0.63;;
9156;SDS011;4613;48.392;9.998;2022-11-04T05:04:55;0.93;;;0.70;;
9156;SDS011;4613;48.392;9.998;2022-11-04T05:07:47;2.10;;;0.73;;
9156;SDS011;4613;48.392;9.998;2022-11-04T05:10:36;0.53;;;0.53;;
9156;SDS011;4613;48.392;9.998;2022-11-04T05:13:26;2.13;;;0.60;;
9156;SDS011;4613;48.392;9.998;2022-11-04T05:16:18;0.73;;;0.73;;
9156;SDS011;4613;48.392;9.998;2022-11-04T05:19:08;2.23;;;0.90;;
9156;SDS011;4613;48.392;9.998;2022-11-04T05:21:57;0.50;;;0.50;;
9156;SDS011;4613;48.392;9.998;2022-11-04T05:24:49;0.97;;;0.77;;
9156;SDS011;4613;48.392;9.998;2022-11-04T05:27:38;0.90;;;0.70;;
9156;SDS011;4613;48.392;9.998;2022-11-04T05:30:27;0.50;;;0.50;;
9156;SDS011;4613;48.392;9.998;2022-11-04T05:33:17;0.73;;;0.73;;
9156;SDS011;4613;48.392;9.998;2022-11-04T05:36:08;0.60;;;0.60;;
9156;SDS011;4613;48.392;9.998;2022-11-04T05:38:59;0.93;;;0.73;;
9156;SDS011;4613;48.392;9.998;2022-11-04T05:41:48;0.70;;;0.67;;
9156;SDS011;4613;48.392;9.998;2022-11-04T05:44:38;1.17;;;0.83;;
9156;SDS011;4613;48.392;9.998;2022-11-04T05:47:27;0.60;;;0.60;;
9156;SDS011;4613;48.392;9.998;2022-11-04T05:50:17;0.93;;;0.83;;
9156;SDS011;4613;48.392;9.998;2022-11-04T05:53:07;0.83;;;0.83;;
9156;SDS011;4613;48.392;9.998;2022-11-04T05:55:56;0.90;;;0.90;;
9156;SDS011;4613;48.392;9.998;2022-11-04T05:58:46;0.83;;;0.83;;
9156;SDS011;4613;48.392;9.998;2022-11-04T06:01:39;0.67;;;0.67;;
9156;SDS011;4613;48.392;9.998;2022-11-04T06:04:30;0.90;;;0.90;;
9156;SDS011;4613;48.392;9.998;2022-11-04T06:07:20;0.50;;;0.50;;
9156;SDS011;4613;48.392;9.998;2022-11-04T06:10:09;0.80;;;0.63;;
9156;SDS011;4613;48.392;9.998;2022-11-04T06:12:59;0.40;;;0.40;;
9156;SDS011;4613;48.392;9.998;2022-11-04T06:15:48;1.03;;;0.60;;
9156;SDS011;4613;48.392;9.998;2022-11-04T06:18:38;0.40;;;0.40;;
9156;SDS011;4613;48.392;9.998;2022-11-04T06:21:31;0.50;;;0.50;;
9156;SDS011;4613;48.392;9.998;2022-11-04T06:24:22;0.87;;;0.57;;
9156;SDS011;4613;48.392;9.998;2022-11-04T06:27:13;0.53;;;0.53;;
9156;SDS011;4613;48.392;9.998;2022-11-04T06:30:03;0.60;;;0.60;;
9156;SDS011;4613;48.392;9.998;2022-11-04T06:32:53;0.63;;;0.63;;
9156;SDS011;4613;48.392;9.998;2022-11-04T06:35:42;0.77;;;0.77;;
9156;SDS011;4613;48.392;9.998;2022-11-04T06:38:32;1.20;;;1.03;;
9156;SDS011;4613;48.392;9.998;2022-11-04T06:41:22;1.77;;;1.00;;
9156;SDS011;4613;48.392;9.998;2022-11-04T06:44:12;1.03;;;0.93;;
9156;SDS011;4613;48.392;9.998;2022-11-04T06:47:02;1.27;;;0.97;;
9156;SDS011;4613;48.392;9.998;2022-11-04T06:49:51;0.80;;;0.80;;
9156;SDS011;4613;48.392;9.998;2022-11-04T06:52:42;0.90;;;0.90;;
9156;SDS011;4613;48.392;9.998;2022-11-04T06:55:34;1.57;;;1.00;;
9156;SDS011;4613;48.392;9.998;2022-11-04T06:58:23;1.00;;;1.00;;
9156;SDS011;4613;48.392;9.998;2022-11-04T07:01:13;0.70;;;0.70;;
9156;SDS011;4613;48.392;9.998;2022-11-04T07:04:04;0.83;;;0.80;;
9156;SDS011;4613;48.392;9.998;2022-11-04T07:06:55;0.70;;;0.70;;
9156;SDS011;4613;48.392;9.998;2022-11-04T07:09:44;2.17;;;1.00;;
9156;SDS011;4613;48.392;9.998;2022-11-04T07:12:33;0.97;;;0.97;;
9156;SDS011;4613;48.392;9.998;2022-11-04T07:15:23;1.00;;;0.87;;
9156;SDS011;4613;48.392;9.998;2022-11-04T07:18:12;0.97;;;0.97;;
9156;SDS011;4613;48.392;9.998;2022-11-04T07:21:02;1.50;;;1.40;;
9156;SDS011;4613;48.392;9.998;2022-11-04T07:23:53;0.87;;;0.87;;
9156;SDS011;4613;48.392;9.998;2022-11-04T07:26:42;1.63;;;1.10;;
9156;SDS011;4613;48.392;9.998;2022-11-04T07:29:32;1.03;;;1.03;;
9156;SDS011;4613;48.392;9.998;2022-11-04T07:32:21;1.37;;;1.27;;
9156;SDS011;4613;48.392;9.998;2022-11-04T07:35:10;1.20;;;1.20;;
9156;SDS011;4613;48.392;9.998;2022-11-04T07:38:00;1.17;;;1.10;;
9156;SDS011;4613;48.392;9.998;2022-11-04T07:40:51;0.83;;;0.83;;
9156;SDS011;4613;48.392;9.998;2022-11-04T07:43:41;1.43;;;1.10;;
9156;SDS011;4613;48.392;9.998;2022-11-04T07:46:31;1.03;;;0.93;;
9156;SDS011;4613;48.392;9.998;2022-11-04T07:49:21;1.17;;;1.10;;
9156;SDS011;4613;48.392;9.998;2022-11-04T07:52:10;0.93;;;0.93;;
9156;SDS011;4613;48.392;9.998;2022-11-04T07:54:59;1.77;;;1.03;;
9156;SDS011;4613;48.392;9.998;2022-11-04T07:57:48;0.90;;;0.90;;
9156;SDS011;4613;48.392;9.998;2022-11-04T08:00:38;1.03;;;1.03;;
9156;SDS011;4613;48.392;9.998;2022-11-04T08:03:29;1.60;;;1.10;;
9156;SDS011;4613;48.392;9.998;2022-11-04T08:06:19;1.27;;;0.90;;
9156;SDS011;4613;48.392;9.998;2022-11-04T08:09:09;1.20;;;1.10;;
9156;SDS011;4613;48.392;9.998;2022-11-04T08:11:58;1.77;;;1.37;;
9156;SDS011;4613;48.392;9.998;2022-11-04T08:14:47;1.50;;;1.30;;
9156;SDS011;4613;48.392;9.998;2022-11-04T08:17:36;1.47;;;1.10;;
9156;SDS011;4613;48.392;9.998;2022-11-04T08:20:26;1.40;;;1.13;;
9156;SDS011;4613;48.392;9.998;2022-11-04T08:23:16;0.87;;;0.87;;
9156;SDS011;4613;48.392;9.998;2022-11-04T08:26:07;1.17;;;1.07;;
9156;SDS011;4613;48.392;9.998;2022-11-04T08:28:57;0.93;;;0.93;;
9156;SDS011;4613;48.392;9.998;2022-11-04T08:31:46;1.10;;;1.10;;
9156;SDS011;4613;48.392;9.998;2022-11-04T08:34:36;1.20;;;1.10;;
9156;SDS011;4613;48.392;9.998;2022-11-04T08:37:26;1.70;;;1.00;;
9156;SDS011;4613;48.392;9.998;2022-11-04T08:40:17;0.90;;;0.90;;
9156;SDS011;4613;48.392;9.998;2022-11-04T08:43:06;0.63;;;0.63;;
9156;SDS011;4613;48.392;9.998;2022-11-04T08:45:56;0.90;;;0.90;;
9156;SDS011;4613;48.392;9.998;2022-11-04T08:48:46;1.20;;;1.00;;
9156;SDS011;4613;48.392;9.998;2022-11-04T08:51:38;1.00;;;1.00;;
9156;SDS011;4613;48.392;9.998;2022-11-04T08:54:30;0.83;;;0.83;;
9156;SDS011;4613;48.392;9.998;2022-11-04T08:57:20;1.03;;;1.03;;
9156;SDS011;4613;48.392;9.998;2022-11-04T09:00:10;1.67;;;1.57;;
9156;SDS011;4613;48.392;9.998;2022-11-04T09:02:59;0.80;;;0.80;;
9156;SDS011;4613;48.392;9.998;2022-11-04T09:05:49;0.80;;;0.80;;
9156;SDS011;4613;48.392;9.998;2022-11-04T09:08:39;0.80;;;0.80;;
9156;SDS011;4613;48.392;9.998;2022-11-04T09:11:32;1.00;;;0.90;;
9156;SDS011;4613;48.392;9.998;2022-11-04T09:14:25;0.80;;;0.80;;
9156;SDS011;4613;48.392;9.998;2022-11-04T09:17:14;0.90;;;0.90;;
9156;SDS011;4613;48.392;9.998;2022-11-04T09:20:04;0.80;;;0.80;;
9156;SDS011;4613;48.392;9.998;2022-11-04T09:22:57;1.37;;;1.00;;
9156;SDS011;4613;48.392;9.998;2022-11-04T09:25:46;0.90;;;0.90;;
9156;SDS011;4613;48.392;9.998;2022-11-04T09:28:36;0.70;;;0.70;;
9156;SDS011;4613;48.392;9.998;2022-11-04T09:31:26;1.10;;;1.07;;
9156;SDS011;4613;48.392;9.998;2022-11-04T09:34:17;3.07;;;1.00;;
9156;SDS011;4613;48.392;9.998;2022-11-04T09:37:06;1.20;;;1.10;;
9156;SDS011;4613;48.392;9.998;2022-11-04T09:39:56;0.90;;;0.90;;
9156;SDS011;4613;48.392;9.998;2022-11-04T09:42:50;1.07;;;1.00;;
9156;SDS011;4613;48.392;9.998;2022-11-04T09:45:57;1.23;;;1.20;;
9156;SDS011;4613;48.392;9.998;2022-11-04T09:48:52;1.20;;;1.10;;
9156;SDS011;4613;48.392;9.998;2022-11-04T09:51:43;0.80;;;0.80;;
9156;SDS011;4613;48.392;9.998;2022-11-04T09:54:41;1.10;;;1.10;;
9156;SDS011;4613;48.392;9.998;2022-11-04T09:57:53;1.00;;;1.00;;
9156;SDS011;4613;48.392;9.998;2022-11-04T10:00:50;2.00;;;0.90;;
9156;SDS011;4613;48.392;9.998;2022-11-04T10:14:15;0.70;;;0.70;;
9156;SDS011;4613;48.392;9.998;2022-11-04T10:23:37;0.90;;;0.90;;
9156;SDS011;4613;48.392;9.998;2022-11-04T10:26:46;1.40;;;1.30;;
9156;SDS011;4613;48.392;9.998;2022-11-04T10:29:48;1.87;;;1.30;;
9156;SDS011;4613;48.392;9.998;2022-11-04T10:32:43;1.60;;;1.50;;
9156;SDS011;4613;48.392;9.998;2022-11-04T10:38:37;1.40;;;1.30;;
9156;SDS011;4613;48.392;9.998;2022-11-04T10:41:34;1.73;;;1.60;;
9156;SDS011;4613;48.392;9.998;2022-11-04T10:44:27;1.30;;;1.20;;
9156;SDS011;4613;48.392;9.998;2022-11-04T10:53:32;1.13;;;1.10;;
9156;SDS011;4613;48.392;9.998;2022-11-04T10:59:46;1.10;;;1.00;;
9156;SDS011;4613;48.392;9.998;2022-11-04T11:02:45;0.70;;;0.70;;
9156;SDS011;4613;48.392;9.998;2022-11-04T11:05:35;0.80;;;0.80;;
9156;SDS011;4613;48.392;9.998;2022-11-04T11:08:28;0.73;;;0.73;;
9156;SDS011;4613;48.392;9.998;2022-11-04T11:11:34;0.67;;;0.67;;
9156;SDS011;4613;48.392;9.998;2022-11-04T11:14:33;0.93;;;0.93;;
9156;SDS011;4613;48.392;9.998;2022-11-04T11:20:25;1.30;;;1.20;;
9156;SDS011;4613;48.392;9.998;2022-11-04T11:26:35;0.80;;;0.80;;
9156;SDS011;4613;48.392;9.998;2022-11-04T11:29:26;1.20;;;1.20;;
9156;SDS011;4613;48.392;9.998;2022-11-04T11:32:31;1.20;;;1.10;;
9156;SDS011;4613;48.392;9.998;2022-11-04T11:35:30;2.33;;;0.77;;
9156;SDS011;4613;48.392;9.998;2022-11-04T11:38:29;0.87;;;0.87;;
9156;SDS011;4613;48.392;9.998;2022-11-04T11:41:20;2.63;;;1.17;;
9156;SDS011;4613;48.392;9.998;2022-11-04T11:44:26;1.27;;;1.10;;
9156;SDS011;4613;48.392;9.998;2022-11-04T11:50:26;0.70;;;0.70;;
9156;SDS011;4613;48.392;9.998;2022-11-04T11:53:23;1.07;;;0.97;;
9156;SDS011;4613;48.392;9.998;2022-11-04T11:56:22;0.70;;;0.70;;
9156;SDS011;4613;48.392;9.998;2022-11-04T12:05:39;0.80;;;0.80;;
9156;SDS011;4613;48.392;9.998;2022-11-04T12:12:13;0.83;;;0.83;;
9156;SDS011;4613;48.392;9.998;2022-11-04T12:25:05;1.77;;;0.80;;
9156;SDS011;4613;48.392;9.998;2022-11-04T12:28:14;3.07;;;0.97;;
9156;SDS011;4613;48.392;9.998;2022-11-04T12:41:28;0.97;;;0.80;;
9156;SDS011;4613;48.392;9.998;2022-11-04T12:44:32;1.23;;;0.90;;
9156;SDS011;4613;48.392;9.998;2022-11-04T12:47:36;2.37;;;0.77;;
9156;SDS011;4613;48.392;9.998;2022-11-04T12:53:36;0.53;;;0.53;;
9156;SDS011;4613;48.392;9.998;2022-11-04T12:57:03;2.87;;;0.97;;
9156;SDS011;4613;48.392;9.998;2022-11-04T13:00:19;0.67;;;0.60;;
9156;SDS011;4613;48.392;9.998;2022-11-04T13:03:17;0.60;;;0.60;;
9156;SDS011;4613;48.392;9.998;2022-11-04T13:06:14;0.80;;;0.80;;
9156;SDS011;4613;48.392;9.998;2022-11-04T13:09:09;0.77;;;0.77;;
9156;SDS011;4613;48.392;9.998;2022-11-04T13:12:08;0.57;;;0.57;;
9156;SDS011;4613;48.392;9.998;2022-11-04T13:15:20;0.43;;;0.43;;
9156;SDS011;4613;48.392;9.998;2022-11-04T13:18:14;0.60;;;0.60;;
9156;SDS011;4613;48.392;9.998;2022-11-04T13:24:10;0.97;;;0.73;;
9156;SDS011;4613;48.392;9.998;2022-11-04T13:27:26;0.80;;;0.80;;
9156;SDS011;4613;48.392;9.998;2022-11-04T13:39:36;1.77;;;1.00;;
9156;SDS011;4613;48.392;9.998;2022-11-04T13:48:57;1.07;;;1.00;;
9156;SDS011;4613;48.392;9.998;2022-11-04T13:52:06;0.87;;;0.87;;
9156;SDS011;4613;48.392;9.998;2022-11-04T13:55:00;0.83;;;0.83;;
9156;SDS011;4613;48.392;9.998;2022-11-04T13:57:54;1.07;;;0.97;;
9156;SDS011;4613;48.392;9.998;2022-11-04T14:07:15;1.50;;;1.10;;
9156;SDS011;4613;48.392;9.998;2022-11-04T14:10:29;0.90;;;0.90;;
9156;SDS011;4613;48.392;9.998;2022-11-04T14:16:37;1.40;;;0.70;;
9156;SDS011;4613;48.392;9.998;2022-11-04T14:19:54;0.90;;;0.90;;
9156;SDS011;4613;48.392;9.998;2022-11-04T14:22:47;2.87;;;0.90;;
9156;SDS011;4613;48.392;9.998;2022-11-04T14:25:39;1.17;;;1.07;;
9156;SDS011;4613;48.392;9.998;2022-11-04T14:28:32;0.80;;;0.80;;
9156;SDS011;4613;48.392;9.998;2022-11-04T14:31:38;0.87;;;0.70;;
9156;SDS011;4613;48.392;9.998;2022-11-04T14:34:30;0.97;;;0.87;;
9156;SDS011;4613;48.392;9.998;2022-11-04T14:37:23;0.80;;;0.80;;
9156;SDS011;4613;48.392;9.998;2022-11-04T14:40:25;1.00;;;0.90;;
9156;SDS011;4613;48.392;9.998;2022-11-04T14:43:28;1.13;;;0.90;;
9156;SDS011;4613;48.392;9.998;2022-11-04T14:46:24;0.80;;;0.80;;
9156;SDS011;4613;48.392;9.998;2022-11-04T14:49:36;1.17;;;0.90;;
9156;SDS011;4613;48.392;9.998;2022-11-04T14:52:36;1.10;;;1.00;;
9156;SDS011;4613;48.392;9.998;2022-11-04T14:55:30;1.17;;;1.03;;
9156;SDS011;4613;48.392;9.998;2022-11-04T14:58:24;1.80;;;0.97;;
9156;SDS011;4613;48.392;9.998;2022-11-04T15:01:15;1.53;;;0.80;;
9156;SDS011;4613;48.392;9.998;2022-11-04T15:04:22;0.70;;;0.70;;
9156;SDS011;4613;48.392;9.998;2022-11-04T15:07:24;0.77;;;0.77;;
9156;SDS011;4613;48.392;9.998;2022-11-04T15:10:22;1.70;;;1.50;;
9156;SDS011;4613;48.392;9.998;2022-11-04T15:13:17;0.83;;;0.80;;
9156;SDS011;4613;48.392;9.998;2022-11-04T15:16:09;0.70;;;0.70;;
9156;SDS011;4613;48.392;9.998;2022-11-04T15:19:03;0.80;;;0.80;;
9156;SDS011;4613;48.392;9.998;2022-11-04T15:21:57;1.10;;;1.00;;
9156;SDS011;4613;48.392;9.998;2022-11-04T15:24:48;0.70;;;0.70;;
9156;SDS011;4613;48.392;9.998;2022-11-04T15:27:38;1.27;;;1.03;;
9156;SDS011;4613;48.392;9.998;2022-11-04T15:30:29;0.80;;;0.80;;
9156;SDS011;4613;48.392;9.998;2022-11-04T15:33:19;0.93;;;0.87;;
9156;SDS011;4613;48.392;9.998;2022-11-04T15:36:09;1.00;;;0.90;;
9156;SDS011;4613;48.392;9.998;2022-11-04T15:39:11;1.60;;;0.80;;
9156;SDS011;4613;48.392;9.998;2022-11-04T15:42:12;0.80;;;0.80;;
9156;SDS011;4613;48.392;9.998;2022-11-04T15:45:26;0.80;;;0.80;;
9156;SDS011;4613;48.392;9.998;2022-11-04T15:51:21;0.80;;;0.80;;
9156;SDS011;4613;48.392;9.998;2022-11-04T15:54:21;1.23;;;0.70;;
9156;SDS011;4613;48.392;9.998;2022-11-04T15:57:20;0.73;;;0.73;;
9156;SDS011;4613;48.392;9.998;2022-11-04T16:03:03;0.60;;;0.60;;
9156;SDS011;4613;48.392;9.998;2022-11-04T16:06:03;0.83;;;0.83;;
9156;SDS011;4613;48.392;9.998;2022-11-04T16:09:01;0.80;;;0.80;;
9156;SDS011;4613;48.392;9.998;2022-11-04T16:12:06;0.70;;;0.70;;
9156;SDS011;4613;48.392;9.998;2022-11-04T16:15:03;0.60;;;0.60;;
9156;SDS011;4613;48.392;9.998;2022-11-04T16:17:52;0.83;;;0.83;;
9156;SDS011;4613;48.392;9.998;2022-11-04T16:20:43;0.73;;;0.73;;
9156;SDS011;4613;48.392;9.998;2022-11-04T16:23:36;1.07;;;0.93;;
9156;SDS011;4613;48.392;9.998;2022-11-04T16:26:36;0.87;;;0.87;;
9156;SDS011;4613;48.392;9.998;2022-11-04T16:29:29;2.10;;;1.10;;
9156;SDS011;4613;48.392;9.998;2022-11-04T16:32:26;1.40;;;1.30;;
9156;SDS011;4613;48.392;9.998;2022-11-04T16:35:28;1.10;;;1.10;;
9156;SDS011;4613;48.392;9.998;2022-11-04T16:38:17;1.13;;;1.07;;
9156;SDS011;4613;48.392;9.998;2022-11-04T16:41:07;1.00;;;1.00;;
9156;SDS011;4613;48.392;9.998;2022-11-04T16:43:57;2.23;;;1.40;;
9156;SDS011;4613;48.392;9.998;2022-11-04T16:46:47;1.20;;;1.10;;
9156;SDS011;4613;48.392;9.998;2022-11-04T16:49:36;2.17;;;1.70;;
9156;SDS011;4613;48.392;9.998;2022-11-04T16:52:27;1.70;;;1.23;;
9156;SDS011;4613;48.392;9.998;2022-11-04T16:55:18;1.23;;;1.20;;
9156;SDS011;4613;48.392;9.998;2022-11-04T16:58:14;1.30;;;1.20;;
9156;SDS011;4613;48.392;9.998;2022-11-04T17:01:06;1.37;;;1.27;;
9156;SDS011;4613;48.392;9.998;2022-11-04T17:03:56;1.53;;;1.33;;
9156;SDS011;4613;48.392;9.998;2022-11-04T17:06:46;1.30;;;1.30;;
9156;SDS011;4613;48.392;9.998;2022-11-04T17:09:36;1.40;;;1.30;;
9156;SDS011;4613;48.392;9.998;2022-11-04T17:12:26;1.40;;;1.30;;
9156;SDS011;4613;48.392;9.998;2022-11-04T17:15:15;1.23;;;1.17;;
9156;SDS011;4613;48.392;9.998;2022-11-04T17:18:05;1.30;;;1.20;;
9156;SDS011;4613;48.392;9.998;2022-11-04T17:20:55;1.83;;;1.50;;
9156;SDS011;4613;48.392;9.998;2022-11-04T17:23:45;1.73;;;1.40;;
9156;SDS011;4613;48.392;9.998;2022-11-04T17:26:36;0.97;;;0.97;;
9156;SDS011;4613;48.392;9.998;2022-11-04T17:29:26;1.57;;;1.47;;
9156;SDS011;4613;48.392;9.998;2022-11-04T17:32:17;3.27;;;2.60;;
9156;SDS011;4613;48.392;9.998;2022-11-04T17:35:08;2.17;;;1.97;;
9156;SDS011;4613;48.392;9.998;2022-11-04T17:37:58;2.57;;;1.90;;
9156;SDS011;4613;48.392;9.998;2022-11-04T17:40:48;1.70;;;1.60;;
9156;SDS011;4613;48.392;9.998;2022-11-04T17:43:56;1.70;;;1.60;;
9156;SDS011;4613;48.392;9.998;2022-11-04T17:46:48;1.70;;;1.60;;
9156;SDS011;4613;48.392;9.998;2022-11-04T17:49:38;2.13;;;1.80;;
9156;SDS011;4613;48.392;9.998;2022-11-04T17:52:27;2.20;;;2.00;;
9156;SDS011;4613;48.392;9.998;2022-11-04T17:55:17;1.60;;;1.50;;
9156;SDS011;4613;48.392;9.998;2022-11-04T17:58:06;2.63;;;2.17;;
9156;SDS011;4613;48.392;9.998;2022-11-04T18:00:56;2.37;;;1.77;;
9156;SDS011;4613;48.392;9.998;2022-11-04T18:03:46;2.77;;;2.03;;
9156;SDS011;4613;48.392;9.998;2022-11-04T18:06:35;2.60;;;2.20;;
9156;SDS011;4613;48.392;9.998;2022-11-04T18:09:25;2.73;;;1.97;;
9156;SDS011;4613;48.392;9.998;2022-11-04T18:12:15;2.43;;;2.23;;
9156;SDS011;4613;48.392;9.998;2022-11-04T18:15:23;2.80;;;2.50;;
9156;SDS011;4613;48.392;9.998;2022-11-04T18:18:12;3.20;;;2.70;;
9156;SDS011;4613;48.392;9.998;2022-11-04T18:21:03;2.83;;;2.30;;
9156;SDS011;4613;48.392;9.998;2022-11-04T18:23:54;2.50;;;2.30;;
9156;SDS011;4613;48.392;9.998;2022-11-04T18:26:44;2.87;;;2.50;;
9156;SDS011;4613;48.392;9.998;2022-11-04T18:29:37;2.67;;;2.30;;
9156;SDS011;4613;48.392;9.998;2022-11-04T18:32:26;2.90;;;2.27;;
9156;SDS011;4613;48.392;9.998;2022-11-04T18:35:16;2.10;;;1.90;;
9156;SDS011;4613;48.392;9.998;2022-11-04T18:38:06;2.10;;;1.90;;
9156;SDS011;4613;48.392;9.998;2022-11-04T18:40:55;1.90;;;1.80;;
9156;SDS011;4613;48.392;9.998;2022-11-04T18:43:45;2.40;;;2.03;;
9156;SDS011;4613;48.392;9.998;2022-11-04T18:46:36;1.87;;;1.77;;
9156;SDS011;4613;48.392;9.998;2022-11-04T18:49:25;1.87;;;1.77;;
9156;SDS011;4613;48.392;9.998;2022-11-04T18:52:15;3.10;;;2.10;;
9156;SDS011;4613;48.392;9.998;2022-11-04T18:55:05;2.73;;;1.97;;
9156;SDS011;4613;48.392;9.998;2022-11-04T18:57:55;3.00;;;2.23;;
9156;SDS011;4613;48.392;9.998;2022-11-04T19:00:45;3.20;;;2.40;;
9156;SDS011;4613;48.392;9.998;2022-11-04T19:03:35;2.43;;;2.10;;
9156;SDS011;4613;48.392;9.998;2022-11-04T19:06:27;2.43;;;2.23;;
9156;SDS011;4613;48.392;9.998;2022-11-04T19:09:18;3.53;;;2.63;;
9156;SDS011;4613;48.392;9.998;2022-11-04T19:12:10;3.40;;;2.23;;
9156;SDS011;4613;48.392;9.998;2022-11-04T19:15:18;2.60;;;1.93;;
9156;SDS011;4613;48.392;9.998;2022-11-04T19:18:08;2.93;;;2.37;;
9156;SDS011;4613;48.392;9.998;2022-11-04T19:21:01;3.27;;;2.60;;
9156;SDS011;4613;48.392;9.998;2022-11-04T19:23:56;3.80;;;2.60;;
9156;SDS011;4613;48.392;9.998;2022-11-04T19:26:47;2.43;;;2.20;;
9156;SDS011;4613;48.392;9.998;2022-11-04T19:29:36;3.93;;;2.33;;
9156;SDS011;4613;48.392;9.998;2022-11-04T19:32:25;3.70;;;2.87;;
9156;SDS011;4613;48.392;9.998;2022-11-04T19:35:15;4.13;;;2.97;;
9156;SDS011;4613;48.392;9.998;2022-11-04T19:38:06;3.17;;;2.10;;
9156;SDS011;4613;48.392;9.998;2022-11-04T19:40:57;2.90;;;2.10;;
9156;SDS011;4613;48.392;9.998;2022-11-04T19:43:56;2.23;;;2.03;;
9156;SDS011;4613;48.392;9.998;2022-11-04T19:46:45;2.37;;;2.00;;
9156;SDS011;4613;48.392;9.998;2022-11-04T19:49:35;3.47;;;2.43;;
9156;SDS011;4613;48.392;9.998;2022-11-04T19:52:25;3.37;;;2.30;;
9156;SDS011;4613;48.392;9.998;2022-11-04T19:55:14;2.47;;;2.13;;
9156;SDS011;4613;48.392;9.998;2022-11-04T19:58:04;3.67;;;2.93;;
9156;SDS011;4613;48.392;9.998;2022-11-04T20:00:54;2.93;;;2.40;;
9156;SDS011;4613;48.392;9.998;2022-11-04T20:03:44;2.97;;;2.00;;
9156;SDS011;4613;48.392;9.998;2022-11-04T20:06:34;2.73;;;2.27;;
9156;SDS011;4613;48.392;9.998;2022-11-04T20:09:24;2.20;;;2.00;;
9156;SDS011;4613;48.392;9.998;2022-11-04T20:12:14;2.93;;;2.40;;